Time;durP1;ratioP1;P1;durP2;ratioP2;P2;SDS_P1;SDS_P2;PMS_P1;PMS_P2;Temp;Humidity;BMP_temperature;BMP_pressure;BME280_temperature;BME280_humidity;BME280_pressure;Samples;Min_cycle;Max_cycle;Signal;HPM_P1;HPM_P2
2023/04/24 00:02:17;;;;;;;14.30;7.82;;;;;;;;;;5031641;28;20464;-61
2023/04/24 00:04:46;;;;;;;13.88;7.85;;;;;;;;;;5030888;28;20026;-59
2023/04/24 00:07:19;;;;;;;16.02;8.48;;;;;;;;;;5014003;28;20017;-58
2023/04/24 00:09:45;;;;;;;13.85;7.70;;;;;;;;;;5013821;28;20032;-56
2023/04/24 00:12:12;;;;;;;13.82;7.43;;;;;;;;;;5031462;28;20020;-59
2023/04/24 00:14:38;;;;;;;15.35;7.90;;;;;;;;;;5031265;28;20022;-59
2023/04/24 00:17:04;;;;;;;14.20;7.43;;;;;;;;;;5031360;28;20072;-57
2023/04/24 00:19:30;;;;;;;14.85;7.40;;;;;;;;;;5031048;28;20037;-59
2023/04/24 00:21:56;;;;;;;13.75;6.97;;;;;;;;;;5013793;28;20569;-58
2023/04/24 00:24:22;;;;;;;13.38;7.47;;;;;;;;;;5031186;28;20029;-58
2023/04/24 00:26:48;;;;;;;13.23;7.30;;;;;;;;;;5013685;28;20474;-58
2023/04/24 00:29:14;;;;;;;13.23;7.32;;;;;;;;;;5013715;28;20025;-58
2023/04/24 00:31:40;;;;;;;13.63;7.32;;;;;;;;;;5031493;28;20057;-58
2023/04/24 00:34:07;;;;;;;12.95;7.30;;;;;;;;;;5013438;28;20025;-58
2023/04/24 00:36:33;;;;;;;13.57;7.47;;;;;;;;;;5031214;28;20032;-60
2023/04/24 00:38:59;;;;;;;14.80;7.70;;;;;;;;;;5013417;28;20029;-57
2023/04/24 00:41:26;;;;;;;13.75;7.22;;;;;;;;;;5031157;28;20029;-58
2023/04/24 00:43:52;;;;;;;13.48;6.95;;;;;;;;;;5031087;28;20105;-58
2023/04/24 00:46:19;;;;;;;14.32;7.45;;;;;;;;;;5031131;28;20401;-57
2023/04/24 00:48:45;;;;;;;15.70;7.68;;;;;;;;;;5031173;28;20067;-58
2023/04/24 00:51:11;;;;;;;13.13;6.85;;;;;;;;;;5013462;28;20456;-57
2023/04/24 00:53:37;;;;;;;13.45;7.07;;;;;;;;;;5012673;28;20029;-59
2023/04/24 00:56:03;;;;;;;13.77;7.50;;;;;;;;;;5030992;28;20117;-56
2023/04/24 00:58:31;;;;;;;12.43;6.80;;;;;;;;;;5031016;28;20030;-58
2023/04/24 01:00:57;;;;;;;14.50;7.07;;;;;;;;;;5030886;28;20021;-58
2023/04/24 01:03:25;;;;;;;12.50;6.80;;;;;;;;;;5012942;28;20402;-58
2023/04/24 01:05:54;;;;;;;13.75;7.30;;;;;;;;;;5030935;28;20076;-55
2023/04/24 01:08:21;;;;;;;14.20;7.40;;;;;;;;;;5013242;28;20045;-58
2023/04/24 01:10:47;;;;;;;14.57;7.20;;;;;;;;;;5031023;28;20561;-54
2023/04/24 01:13:14;;;;;;;13.52;7.15;;;;;;;;;;5030423;28;20026;-56
2023/04/24 01:15:40;;;;;;;13.07;7.28;;;;;;;;;;5031291;28;20034;-58
2023/04/24 01:18:06;;;;;;;15.15;8.18;;;;;;;;;;5016826;28;20071;-57
2023/04/24 01:20:33;;;;;;;14.73;7.60;;;;;;;;;;5034285;28;20029;-56
2023/04/24 01:22:59;;;;;;;15.10;7.38;;;;;;;;;;5034136;28;20139;-59
2023/04/24 01:25:26;;;;;;;14.63;7.75;;;;;;;;;;5034102;28;20090;-58
2023/04/24 01:27:52;;;;;;;12.80;7.20;;;;;;;;;;5016557;28;20029;-58
2023/04/24 01:30:18;;;;;;;14.45;7.50;;;;;;;;;;5034755;28;20160;-53
2023/04/24 01:32:45;;;;;;;12.95;7.05;;;;;;;;;;5017883;28;20026;-51
2023/04/24 01:35:11;;;;;;;12.75;6.93;;;;;;;;;;5034907;28;20029;-53
2023/04/24 01:37:37;;;;;;;13.20;7.40;;;;;;;;;;5034296;28;20083;-51
2023/04/24 01:40:04;;;;;;;13.65;7.35;;;;;;;;;;5033996;28;20025;-56
2023/04/24 01:42:30;;;;;;;13.77;7.55;;;;;;;;;;5033935;28;20474;-58
2023/04/24 01:44:57;;;;;;;13.48;7.43;;;;;;;;;;5015683;28;20025;-54
2023/04/24 01:47:24;;;;;;;14.25;7.22;;;;;;;;;;5016180;28;20028;-58
2023/04/24 01:49:50;;;;;;;15.02;7.28;;;;;;;;;;5015978;28;20018;-59
2023/04/24 01:52:17;;;;;;;13.73;7.68;;;;;;;;;;5034006;28;20031;-55
2023/04/24 01:54:43;;;;;;;13.68;7.32;;;;;;;;;;5033591;28;20033;-55
2023/04/24 01:57:10;;;;;;;13.73;7.10;;;;;;;;;;5015879;28;20034;-58
2023/04/24 01:59:36;;;;;;;14.75;7.40;;;;;;;;;;5033588;28;20029;-56
2023/04/24 02:02:02;;;;;;;13.90;7.93;;;;;;;;;;5033612;28;20477;-63
2023/04/24 02:04:28;;;;;;;14.02;8.10;;;;;;;;;;5033321;28;20026;-54
2023/04/24 02:06:54;;;;;;;14.02;8.05;;;;;;;;;;5033592;28;20037;-58
2023/04/24 02:09:20;;;;;;;16.25;8.18;;;;;;;;;;5015819;28;20026;-59
2023/04/24 02:11:46;;;;;;;15.70;8.68;;;;;;;;;;5015655;28;20485;-55
2023/04/24 02:14:12;;;;;;;15.75;8.75;;;;;;;;;;5033210;28;20030;-57
2023/04/24 02:16:38;;;;;;;15.10;8.60;;;;;;;;;;5015705;28;20569;-56
2023/04/24 02:19:05;;;;;;;15.93;9.10;;;;;;;;;;5015550;28;20109;-58
2023/04/24 02:21:31;;;;;;;14.60;8.65;;;;;;;;;;5015796;28;20029;-58
2023/04/24 02:23:57;;;;;;;14.63;8.32;;;;;;;;;;5015193;28;20026;-58
2023/04/24 02:26:24;;;;;;;15.43;8.55;;;;;;;;;;5033117;28;20018;-60
2023/04/24 02:28:49;;;;;;;14.57;8.07;;;;;;;;;;5033490;28;20029;-60
2023/04/24 02:31:15;;;;;;;15.20;8.32;;;;;;;;;;5033210;28;20034;-58
2023/04/24 02:33:41;;;;;;;14.65;7.82;;;;;;;;;;5033075;28;20104;-59
2023/04/24 02:36:07;;;;;;;15.25;8.38;;;;;;;;;;5015424;28;20033;-58
2023/04/24 02:38:33;;;;;;;15.75;8.82;;;;;;;;;;5032998;28;20030;-58
2023/04/24 02:41:00;;;;;;;15.32;8.82;;;;;;;;;;5032969;28;20021;-57
2023/04/24 02:43:26;;;;;;;16.15;8.68;;;;;;;;;;5032376;28;20022;-58
2023/04/24 02:45:52;;;;;;;15.32;8.80;;;;;;;;;;5032738;28;20542;-57
2023/04/24 02:48:20;;;;;;;15.65;8.40;;;;;;;;;;5032863;28;20094;-59
2023/04/24 02:50:46;;;;;;;16.15;9.40;;;;;;;;;;5032803;28;20479;-56
2023/04/24 02:53:12;;;;;;;15.50;9.70;;;;;;;;;;5032391;28;20064;-57
2023/04/24 02:55:38;;;;;;;16.75;9.63;;;;;;;;;;5015097;28;20401;-57
2023/04/24 02:58:05;;;;;;;16.55;9.55;;;;;;;;;;5014996;28;20021;-58
2023/04/24 03:00:31;;;;;;;16.25;9.48;;;;;;;;;;5032348;28;20466;-57
2023/04/24 03:02:57;;;;;;;17.17;9.98;;;;;;;;;;5032362;28;20022;-56
2023/04/24 03:05:23;;;;;;;16.17;9.65;;;;;;;;;;5032247;28;20028;-60
2023/04/24 03:07:49;;;;;;;16.80;10.20;;;;;;;;;;5032460;28;20461;-59
2023/04/24 03:10:15;;;;;;;16.60;10.85;;;;;;;;;;5032330;28;20083;-57
2023/04/24 03:12:41;;;;;;;18.38;11.40;;;;;;;;;;5032200;28;20025;-59
2023/04/24 03:15:07;;;;;;;17.60;11.65;;;;;;;;;;5014291;28;20029;-55
2023/04/24 03:17:33;;;;;;;17.85;12.45;;;;;;;;;;5032217;28;20025;-58
2023/04/24 03:19:59;;;;;;;18.83;11.70;;;;;;;;;;5014101;28;20071;-59
2023/04/24 03:22:25;;;;;;;18.30;11.82;;;;;;;;;;5032056;28;20108;-58
2023/04/24 03:24:51;;;;;;;19.15;12.65;;;;;;;;;;5031791;28;20021;-57
2023/04/24 03:27:17;;;;;;;18.67;12.50;;;;;;;;;;5014410;28;20028;-54
2023/04/24 03:29:43;;;;;;;17.52;11.98;;;;;;;;;;5031953;28;20486;-59
2023/04/24 03:32:09;;;;;;;21.73;12.90;;;;;;;;;;5031829;28;20112;-58
2023/04/24 03:34:36;;;;;;;17.88;11.85;;;;;;;;;;5031868;28;20504;-56
2023/04/24 03:37:02;;;;;;;19.25;13.00;;;;;;;;;;5031968;28;20477;-57
2023/04/24 03:39:28;;;;;;;19.60;12.70;;;;;;;;;;5031575;28;20026;-58
2023/04/24 03:41:54;;;;;;;20.13;12.70;;;;;;;;;;5014494;28;20513;-55
2023/04/24 03:44:20;;;;;;;19.42;12.73;;;;;;;;;;5031645;28;20108;-58
2023/04/24 03:46:46;;;;;;;20.15;13.32;;;;;;;;;;5014111;28;20021;-55
2023/04/24 03:49:12;;;;;;;20.27;14.18;;;;;;;;;;5031463;28;20144;-53
2023/04/24 03:51:38;;;;;;;20.02;15.50;;;;;;;;;;5031602;28;20026;-51
2023/04/24 03:54:04;;;;;;;22.80;15.85;;;;;;;;;;5031294;28;20105;-57
2023/04/24 03:56:30;;;;;;;21.58;15.98;;;;;;;;;;5031498;28;20406;-56
2023/04/24 03:58:56;;;;;;;22.70;16.98;;;;;;;;;;5031248;28;20032;-54
2023/04/24 04:01:22;;;;;;;23.00;16.80;;;;;;;;;;5031545;28;20033;-58
2023/04/24 04:03:48;;;;;;;23.23;17.02;;;;;;;;;;5032118;28;20024;-58
2023/04/24 04:06:14;;;;;;;22.83;16.52;;;;;;;;;;5031713;28;20030;-53
2023/04/24 04:08:40;;;;;;;26.20;17.40;;;;;;;;;;5031496;28;20057;-58
2023/04/24 04:11:06;;;;;;;25.45;16.67;;;;;;;;;;5031359;28;20096;-60
2023/04/24 04:13:32;;;;;;;25.65;17.88;;;;;;;;;;5013543;28;20573;-54
2023/04/24 04:15:58;;;;;;;25.05;17.45;;;;;;;;;;5031625;28;20056;-60
2023/04/24 04:18:24;;;;;;;25.40;17.38;;;;;;;;;;5013517;28;20025;-58
2023/04/24 04:20:50;;;;;;;24.35;18.88;;;;;;;;;;5031423;28;20038;-58
2023/04/24 04:23:16;;;;;;;23.52;17.98;;;;;;;;;;5031178;28;20101;-53
2023/04/24 04:25:42;;;;;;;26.67;18.58;;;;;;;;;;5031287;28;20493;-60
2023/04/24 04:28:08;;;;;;;24.90;17.63;;;;;;;;;;5031438;28;20026;-56
2023/04/24 04:30:34;;;;;;;33.45;18.08;;;;;;;;;;5009297;28;20029;-63
2023/04/24 04:33:01;;;;;;;25.13;19.10;;;;;;;;;;5031175;28;20036;-59
2023/04/24 04:35:27;;;;;;;24.45;17.80;;;;;;;;;;5030997;28;20037;-61
2023/04/24 04:37:53;;;;;;;29.67;19.15;;;;;;;;;;5031066;28;20029;-58
2023/04/24 04:40:19;;;;;;;26.65;18.25;;;;;;;;;;5015453;28;20017;-59
2023/04/24 04:42:45;;;;;;;26.60;18.58;;;;;;;;;;5030414;28;20036;-54
2023/04/24 04:45:12;;;;;;;25.77;18.65;;;;;;;;;;5019207;28;20414;-53
2023/04/24 04:47:39;;;;;;;29.80;19.23;;;;;;;;;;5027394;28;20017;-56
2023/04/24 04:50:05;;;;;;;29.00;20.15;;;;;;;;;;5021067;28;20025;-53
2023/04/24 04:52:31;;;;;;;29.60;19.92;;;;;;;;;;5033506;28;20017;-60
2023/04/24 04:54:57;;;;;;;27.92;18.80;;;;;;;;;;5033754;28;20025;-61
2023/04/24 04:57:23;;;;;;;28.75;18.67;;;;;;;;;;5034113;28;20033;-59
2023/04/24 04:59:49;;;;;;;27.10;18.98;;;;;;;;;;5031557;28;20060;-53
2023/04/24 05:02:15;;;;;;;28.38;20.40;;;;;;;;;;5033414;28;20030;-60
2023/04/24 05:04:41;;;;;;;31.58;20.77;;;;;;;;;;5029863;28;20040;-63
2023/04/24 05:07:07;;;;;;;31.60;20.10;;;;;;;;;;5033766;28;20462;-63
2023/04/24 05:09:33;;;;;;;25.38;19.50;;;;;;;;;;5033701;28;20048;-63
2023/04/24 05:11:59;;;;;;;27.10;20.30;;;;;;;;;;5033812;28;20084;-63
2023/04/24 05:14:25;;;;;;;28.38;19.80;;;;;;;;;;5033328;28;20045;-63
2023/04/24 05:16:51;;;;;;;27.58;19.77;;;;;;;;;;5033455;28;20040;-64
2023/04/24 05:19:17;;;;;;;30.73;20.25;;;;;;;;;;5048094;22;20021;-59
2023/04/24 05:21:43;;;;;;;27.50;19.63;;;;;;;;;;5033834;28;20065;-62
2023/04/24 05:24:09;;;;;;;27.05;18.75;;;;;;;;;;5031684;28;20104;-61
2023/04/24 05:26:35;;;;;;;26.83;19.33;;;;;;;;;;5032876;28;20018;-61
2023/04/24 05:29:02;;;;;;;28.60;19.45;;;;;;;;;;5032437;28;20028;-63
2023/04/24 05:31:28;;;;;;;30.90;20.33;;;;;;;;;;5033509;28;20470;-60
2023/04/24 05:33:54;;;;;;;34.67;19.33;;;;;;;;;;5033306;28;20033;-60
2023/04/24 05:36:20;;;;;;;28.67;18.88;;;;;;;;;;5032958;28;20449;-62
2023/04/24 05:38:46;;;;;;;30.02;19.30;;;;;;;;;;5033555;28;20044;-55
2023/04/24 05:41:12;;;;;;;26.80;18.88;;;;;;;;;;5033327;28;20468;-58
2023/04/24 05:43:38;;;;;;;27.42;18.35;;;;;;;;;;5032808;28;20025;-62
2023/04/24 05:46:04;;;;;;;29.75;19.67;;;;;;;;;;5033056;28;20021;-59
2023/04/24 05:48:30;;;;;;;28.02;19.95;;;;;;;;;;5032744;28;20021;-59
2023/04/24 05:50:56;;;;;;;27.65;18.40;;;;;;;;;;5032870;28;20037;-60
2023/04/24 05:53:22;;;;;;;26.88;17.48;;;;;;;;;;5032707;28;20502;-58
2023/04/24 05:55:48;;;;;;;28.73;17.85;;;;;;;;;;5015247;28;20056;-58
2023/04/24 05:58:14;;;;;;;28.30;19.58;;;;;;;;;;5032956;28;20044;-58
2023/04/24 06:00:42;;;;;;;28.63;18.13;;;;;;;;;;5015177;28;20025;-60
2023/04/24 06:03:08;;;;;;;24.77;17.48;;;;;;;;;;5014318;28;20022;-62
2023/04/24 06:05:35;;;;;;;26.05;17.77;;;;;;;;;;5032928;28;20021;-58
2023/04/24 06:08:01;;;;;;;27.48;18.70;;;;;;;;;;5014576;28;20033;-60
2023/04/24 06:10:27;;;;;;;26.63;17.40;;;;;;;;;;5032488;28;20025;-57
2023/04/24 06:12:56;;;;;;;25.50;17.45;;;;;;;;;;5014670;28;20025;-59
2023/04/24 06:15:22;;;;;;;29.30;17.25;;;;;;;;;;5032433;28;20397;-54
2023/04/24 06:17:48;;;;;;;24.05;16.33;;;;;;;;;;5032703;28;20033;-60
2023/04/24 06:20:14;;;;;;;28.08;16.67;;;;;;;;;;5032691;28;20547;-60
2023/04/24 06:22:40;;;;;;;23.88;16.23;;;;;;;;;;5032653;28;20038;-53
2023/04/24 06:25:07;;;;;;;25.30;16.30;;;;;;;;;;5014008;28;20127;-60
2023/04/24 06:27:33;;;;;;;30.73;18.23;;;;;;;;;;5014283;28;20025;-59
2023/04/24 06:29:59;;;;;;;23.98;15.25;;;;;;;;;;5014520;28;20375;-62
2023/04/24 06:32:25;;;;;;;22.98;16.10;;;;;;;;;;5032692;28;20105;-59
2023/04/24 06:34:54;;;;;;;23.00;16.42;;;;;;;;;;5031907;28;20493;-60
2023/04/24 06:37:23;;;;;;;24.13;16.10;;;;;;;;;;5031868;28;20033;-59
2023/04/24 06:39:49;;;;;;;23.35;16.80;;;;;;;;;;5031478;28;20029;-58
2023/04/24 06:42:15;;;;;;;24.73;15.98;;;;;;;;;;5032210;28;20076;-55
2023/04/24 06:44:41;;;;;;;22.98;16.13;;;;;;;;;;5013395;28;20124;-58
2023/04/24 06:47:08;;;;;;;25.35;16.63;;;;;;;;;;5014414;28;20049;-60
2023/04/24 06:49:35;;;;;;;25.20;15.55;;;;;;;;;;5014227;28;20021;-60
2023/04/24 06:52:01;;;;;;;21.60;15.25;;;;;;;;;;5032511;28;20029;-60
2023/04/24 06:54:27;;;;;;;22.52;15.45;;;;;;;;;;5031908;28;20451;-59
2023/04/24 06:56:53;;;;;;;21.60;14.05;;;;;;;;;;5014099;28;20041;-60
2023/04/24 06:59:19;;;;;;;22.02;14.82;;;;;;;;;;5031942;28;20049;-59
2023/04/24 07:01:45;;;;;;;21.30;15.18;;;;;;;;;;5031150;28;20036;-62
2023/04/24 07:04:12;;;;;;;23.45;16.88;;;;;;;;;;5014952;28;20116;-62
2023/04/24 07:06:39;;;;;;;21.15;14.73;;;;;;;;;;5032933;28;20030;-56
2023/04/24 07:09:05;;;;;;;22.42;14.73;;;;;;;;;;5014561;28;20030;-61
2023/04/24 07:11:31;;;;;;;21.55;15.35;;;;;;;;;;5032098;28;20432;-62
2023/04/24 07:13:57;;;;;;;21.67;15.20;;;;;;;;;;5030909;28;20032;-59
2023/04/24 07:16:23;;;;;;;20.60;14.23;;;;;;;;;;5014132;28;20072;-61
2023/04/24 07:18:49;;;;;;;20.38;14.73;;;;;;;;;;5031982;28;20066;-61
2023/04/24 07:21:15;;;;;;;22.67;14.55;;;;;;;;;;5031658;28;20061;-62
2023/04/24 07:23:41;;;;;;;21.88;15.57;;;;;;;;;;5031611;28;20033;-57
2023/04/24 07:26:07;;;;;;;20.48;14.50;;;;;;;;;;5031659;28;20104;-58
2023/04/24 07:28:33;;;;;;;22.27;14.82;;;;;;;;;;5031785;28;20026;-57
2023/04/24 07:30:59;;;;;;;20.90;14.32;;;;;;;;;;5013996;28;20022;-58
2023/04/24 07:33:26;;;;;;;22.83;15.38;;;;;;;;;;5031589;28;20561;-56
2023/04/24 07:35:52;;;;;;;20.75;13.48;;;;;;;;;;5031521;28;20383;-61
2023/04/24 07:38:22;;;;;;;20.77;13.85;;;;;;;;;;5031758;28;20105;-61
2023/04/24 07:40:48;;;;;;;20.88;14.02;;;;;;;;;;5031618;28;20026;-59
2023/04/24 07:43:14;;;;;;;20.30;14.13;;;;;;;;;;5013542;28;20112;-62
2023/04/24 07:45:41;;;;;;;21.35;12.93;;;;;;;;;;5013746;28;20120;-55
2023/04/24 07:48:08;;;;;;;19.23;12.90;;;;;;;;;;5031544;28;20367;-57
2023/04/24 07:50:36;;;;;;;21.20;13.52;;;;;;;;;;5032130;28;20091;-61
2023/04/24 07:53:02;;;;;;;21.08;13.05;;;;;;;;;;5030735;28;20071;-56
2023/04/24 07:55:28;;;;;;;20.42;13.88;;;;;;;;;;5030961;28;20091;-53
2023/04/24 07:57:54;;;;;;;20.77;13.30;;;;;;;;;;5030989;28;20029;-57
2023/04/24 08:00:20;;;;;;;19.70;13.43;;;;;;;;;;5030895;28;20468;-56
2023/04/24 08:02:46;;;;;;;19.27;13.38;;;;;;;;;;5031019;28;20116;-57
2023/04/24 08:05:12;;;;;;;18.92;13.05;;;;;;;;;;5031092;28;20116;-59
2023/04/24 08:07:38;;;;;;;19.35;12.45;;;;;;;;;;5013761;28;20026;-55
2023/04/24 08:10:05;;;;;;;18.35;12.82;;;;;;;;;;5031421;28;20112;-58
2023/04/24 08:12:31;;;;;;;18.75;12.70;;;;;;;;;;5031773;28;20089;-61
2023/04/24 08:14:57;;;;;;;20.15;12.80;;;;;;;;;;5031508;28;20103;-60
2023/04/24 08:17:23;;;;;;;19.17;11.77;;;;;;;;;;5031313;28;20490;-59
2023/04/24 08:19:50;;;;;;;18.70;12.43;;;;;;;;;;5013516;28;20068;-59
2023/04/24 08:22:16;;;;;;;18.13;12.23;;;;;;;;;;5013535;28;20034;-57
2023/04/24 08:24:43;;;;;;;18.77;12.63;;;;;;;;;;5031594;28;20478;-56
2023/04/24 08:27:10;;;;;;;20.25;13.40;;;;;;;;;;5035170;28;20017;-59
2023/04/24 08:29:36;;;;;;;18.77;12.68;;;;;;;;;;5035467;28;20406;-59
2023/04/24 08:32:02;;;;;;;19.05;12.02;;;;;;;;;;5035419;28;20021;-57
2023/04/24 08:34:28;;;;;;;17.90;12.52;;;;;;;;;;5034901;28;20025;-59
2023/04/24 08:36:55;;;;;;;18.98;12.35;;;;;;;;;;5035192;28;20036;-61
2023/04/24 08:39:21;;;;;;;18.77;12.40;;;;;;;;;;5034823;28;20096;-59
2023/04/24 08:41:49;;;;;;;16.67;11.73;;;;;;;;;;5035326;28;20045;-56
2023/04/24 08:44:15;;;;;;;17.50;12.07;;;;;;;;;;5034744;28;20033;-57
2023/04/24 08:46:43;;;;;;;17.52;12.15;;;;;;;;;;5034900;28;20032;-59
2023/04/24 08:49:09;;;;;;;18.38;11.45;;;;;;;;;;5035036;28;20029;-58
2023/04/24 08:51:37;;;;;;;17.42;11.70;;;;;;;;;;5017069;28;20021;-61
2023/04/24 08:54:03;;;;;;;17.02;11.10;;;;;;;;;;5034781;28;20029;-61
2023/04/24 08:56:30;;;;;;;17.33;12.30;;;;;;;;;;5035461;28;20033;-56
2023/04/24 08:58:57;;;;;;;17.73;11.93;;;;;;;;;;5035030;28;20025;-59
2023/04/24 09:01:24;;;;;;;16.95;11.88;;;;;;;;;;5034683;28;20401;-60
2023/04/24 09:03:50;;;;;;;16.65;11.52;;;;;;;;;;5016535;28;20031;-57
2023/04/24 09:06:18;;;;;;;17.30;12.02;;;;;;;;;;5035762;28;20083;-57
2023/04/24 09:08:44;;;;;;;16.95;11.82;;;;;;;;;;5035598;28;20018;-62
2023/04/24 09:11:10;;;;;;;17.48;11.13;;;;;;;;;;5017371;28;20033;-59
2023/04/24 09:13:37;;;;;;;17.25;10.95;;;;;;;;;;5034765;28;20038;-60
2023/04/24 09:16:03;;;;;;;16.25;11.05;;;;;;;;;;5034918;28;20466;-60
2023/04/24 09:18:29;;;;;;;16.48;11.10;;;;;;;;;;5034748;28;20037;-57
2023/04/24 09:20:58;;;;;;;17.60;12.48;;;;;;;;;;5034580;28;20033;-57
2023/04/24 09:23:26;;;;;;;17.77;14.30;;;;;;;;;;5034382;28;20382;-58
2023/04/24 09:25:55;;;;;;;18.87;14.87;;;;;;;;;;5038086;28;20056;-59
2023/04/24 09:28:20;;;;;;;;;;;;;;;;;;5040385;28;20029;-61
2023/04/24 09:30:47;;;;;;;29.45;26.92;;;;;;;;;;5039984;28;19928;-62
2023/04/24 09:33:14;;;;;;;37.40;34.50;;;;;;;;;;5039866;28;20033;-58
2023/04/24 09:35:41;;;;;;;48.47;45.07;;;;;;;;;;5039554;28;20018;-56
2023/04/24 09:38:07;;;;;;;53.17;49.47;;;;;;;;;;5022172;28;20272;-60
2023/04/24 09:40:35;;;;;;;57.22;52.92;;;;;;;;;;5039771;28;20049;-61
2023/04/24 09:43:02;;;;;;;56.03;52.13;;;;;;;;;;5038138;28;20110;-57
2023/04/24 09:45:38;;;;;;;54.55;50.65;;;;;;;;;;5034848;28;20022;-52
2023/04/24 09:48:06;;;;;;;55.10;51.10;;;;;;;;;;5034566;28;20029;-57
2023/04/24 09:50:34;;;;;;;57.17;53.08;;;;;;;;;;5016975;28;20022;-55
2023/04/24 09:53:02;;;;;;;60.25;55.95;;;;;;;;;;5033758;28;20014;-55
2023/04/24 09:55:28;;;;;;;60.42;55.92;;;;;;;;;;5033843;28;20091;-56
2023/04/24 09:58:00;;;;;;;59.45;55.30;;;;;;;;;;5033927;28;20043;-57
2023/04/24 10:00:27;;;;;;;57.65;53.63;;;;;;;;;;5169347;22;20053;-55
2023/04/24 10:02:56;;;;;;;56.53;52.53;;;;;;;;;;4996060;28;20402;-52
2023/04/24 10:05:27;;;;;;;56.13;52.22;;;;;;;;;;5013538;28;20038;-54
2023/04/24 10:07:57;;;;;;;56.80;52.58;;;;;;;;;;5013672;28;20025;-52
2023/04/24 10:10:23;;;;;;;52.97;49.22;;;;;;;;;;5013641;28;20032;-53
2023/04/24 10:12:49;;;;;;;55.42;51.40;;;;;;;;;;5013211;28;20068;-54
2023/04/24 10:15:20;;;;;;;55.30;51.55;;;;;;;;;;5014674;28;20101;-52
2023/04/24 10:17:51;;;;;;;54.33;50.58;;;;;;;;;;5013051;28;20025;-56
2023/04/24 10:20:18;;;;;;;54.95;51.13;;;;;;;;;;5013248;28;20025;-55
2023/04/24 10:22:45;;;;;;;56.03;52.13;;;;;;;;;;5013778;28;20475;-56
2023/04/24 10:25:12;;;;;;;57.17;53.13;;;;;;;;;;5012835;28;20028;-57
2023/04/24 10:27:38;;;;;;;56.88;53.00;;;;;;;;;;5013251;28;20021;-57
2023/04/24 10:30:05;;;;;;;55.67;51.55;;;;;;;;;;5012995;28;20081;-59
2023/04/24 10:32:31;;;;;;;54.25;50.45;;;;;;;;;;5013086;28;20101;-59
2023/04/24 10:34:57;;;;;;;56.85;52.95;;;;;;;;;;5012897;28;20061;-58
2023/04/24 10:37:24;;;;;;;54.95;51.15;;;;;;;;;;5012745;28;20021;-58
2023/04/24 10:39:54;;;;;;;54.83;51.08;;;;;;;;;;5012651;28;20034;-58
2023/04/24 10:42:20;;;;;;;52.70;48.67;;;;;;;;;;5012646;28;20104;-56
2023/04/24 10:44:49;;;;;;;53.60;49.95;;;;;;;;;;5012036;28;20441;-59
2023/04/24 10:47:15;;;;;;;54.55;50.72;;;;;;;;;;5011931;28;20021;-57
2023/04/24 10:49:41;;;;;;;52.25;48.65;;;;;;;;;;4994583;28;20026;-55
2023/04/24 10:52:09;;;;;;;54.83;50.83;;;;;;;;;;5012476;28;20398;-57
2023/04/24 10:54:36;;;;;;;54.63;50.63;;;;;;;;;;5012454;28;20026;-56
2023/04/24 10:57:21;;;;;;;51.25;47.75;;;;;;;;;;5013004;28;20026;-57
2023/04/24 10:59:48;;;;;;;49.10;45.40;;;;;;;;;;5012127;28;20018;-55
2023/04/24 11:02:17;;;;;;;47.90;43.85;;;;;;;;;;5012263;28;20045;-59
2023/04/24 11:04:44;;;;;;;47.53;44.22;;;;;;;;;;5012371;28;20029;-54
2023/04/24 11:07:11;;;;;;;47.25;43.92;;;;;;;;;;5012967;28;20018;-60
2023/04/24 11:09:40;;;;;;;47.97;44.58;;;;;;;;;;4995231;28;20029;-59
2023/04/24 11:12:10;;;;;;;46.20;42.90;;;;;;;;;;5012616;28;20498;-52
2023/04/24 11:14:55;;;;;;;43.08;40.00;;;;;;;;;;5012223;28;20030;-52
2023/04/24 11:17:40;;;;;;;44.30;41.10;;;;;;;;;;5011772;28;20104;-57
2023/04/24 11:20:09;;;;;;;42.75;39.63;;;;;;;;;;5012193;28;20050;-56
2023/04/24 11:22:35;;;;;;;;;;;;;;;;;;5012524;28;20029;-56
2023/04/24 11:25:04;;;;;;;37.17;34.58;;;;;;;;;;5011794;28;20000;-56
2023/04/24 11:27:43;;;;;;;37.65;35.05;;;;;;;;;;5012453;28;20061;-53
2023/04/24 11:30:10;;;;;;;39.70;37.10;;;;;;;;;;5012269;28;20022;-57
2023/04/24 11:32:37;;;;;;;40.38;37.67;;;;;;;;;;4994272;28;20022;-56
2023/04/24 11:35:03;;;;;;;37.65;35.05;;;;;;;;;;5012163;28;20056;-57
2023/04/24 11:37:34;;;;;;;39.88;37.17;;;;;;;;;;5012025;28;20107;-58
2023/04/24 11:40:00;;;;;;;41.53;38.60;;;;;;;;;;5011772;28;20029;-55
2023/04/24 11:42:26;;;;;;;43.33;40.33;;;;;;;;;;5011790;28;20034;-58
2023/04/24 11:44:54;;;;;;;41.53;38.70;;;;;;;;;;5011181;28;20518;-55
2023/04/24 11:47:20;;;;;;;41.28;38.47;;;;;;;;;;5011608;28;20022;-55
2023/04/24 11:49:46;;;;;;;39.00;36.30;;;;;;;;;;5011736;28;20088;-56
2023/04/24 11:52:16;;;;;;;41.88;39.08;;;;;;;;;;5012078;28;20018;-59
2023/04/24 11:54:47;;;;;;;42.75;39.85;;;;;;;;;;5011603;28;20064;-57
2023/04/24 11:57:13;;;;;;;43.28;40.45;;;;;;;;;;4994015;28;20486;-55
2023/04/24 11:59:39;;;;;;;44.70;41.50;;;;;;;;;;5011096;28;20040;-54
2023/04/24 12:02:06;;;;;;;40.55;37.75;;;;;;;;;;5011400;28;20111;-53
2023/04/24 12:04:41;;;;;;;41.67;38.88;;;;;;;;;;5010996;28;20116;-57
2023/04/24 12:07:10;;;;;;;39.92;37.17;;;;;;;;;;5011419;28;20522;-57
2023/04/24 12:09:42;;;;;;;38.92;36.13;;;;;;;;;;5011403;28;20037;-55
2023/04/24 12:12:08;;;;;;;40.70;37.95;;;;;;;;;;5011531;28;20025;-55
2023/04/24 12:14:42;;;;;;;40.83;38.08;;;;;;;;;;5011126;28;20030;-55
2023/04/24 12:17:08;;;;;;;42.65;39.75;;;;;;;;;;5011379;28;20034;-58
2023/04/24 12:19:34;;;;;;;43.90;40.90;;;;;;;;;;5011408;28;20032;-60
2023/04/24 12:22:01;;;;;;;44.10;41.10;;;;;;;;;;5011399;28;20041;-57
2023/04/24 12:24:27;;;;;;;40.60;37.80;;;;;;;;;;5011049;28;20033;-56
2023/04/24 12:26:53;;;;;;;37.92;35.22;;;;;;;;;;5011129;28;20103;-57
2023/04/24 12:29:22;;;;;;;34.90;32.40;;;;;;;;;;5011142;28;20022;-61
2023/04/24 12:31:48;;;;;;;34.60;32.10;;;;;;;;;;5011132;28;20105;-53
2023/04/24 12:34:18;;;;;;;33.75;31.25;;;;;;;;;;5010794;28;20030;-55
2023/04/24 12:36:44;;;;;;;32.28;29.88;;;;;;;;;;5011034;28;20022;-59
2023/04/24 12:39:17;;;;;;;31.73;29.42;;;;;;;;;;5011452;28;20037;-56
2023/04/24 12:42:01;;;;;;;31.05;28.75;;;;;;;;;;5010874;28;20053;-55
2023/04/24 12:44:34;;;;;;;31.17;28.88;;;;;;;;;;5010604;28;20438;-55
2023/04/24 12:47:00;;;;;;;31.58;29.27;;;;;;;;;;5010967;28;20022;-59
2023/04/24 12:49:27;;;;;;;31.67;29.38;;;;;;;;;;4993244;28;20398;-59
2023/04/24 12:51:52;;;;;;;32.22;29.92;;;;;;;;;;5010982;28;20030;-57
2023/04/24 12:54:18;;;;;;;32.25;29.95;;;;;;;;;;4993375;28;20032;-59
2023/04/24 12:56:45;;;;;;;36.30;33.42;;;;;;;;;;5010691;28;20084;-60
2023/04/24 12:59:10;;;;;;;33.90;31.50;;;;;;;;;;5010715;28;20100;-59
2023/04/24 13:01:36;;;;;;;32.28;29.98;;;;;;;;;;5010457;28;20120;-58
2023/04/24 13:04:02;;;;;;;30.25;28.05;;;;;;;;;;5010783;28;20037;-58
2023/04/24 13:06:28;;;;;;;30.25;28.05;;;;;;;;;;5010738;28;20022;-56
2023/04/24 13:08:57;;;;;;;27.60;25.50;;;;;;;;;;5010954;28;20475;-60
2023/04/24 13:11:23;;;;;;;25.80;23.80;;;;;;;;;;5010948;28;20030;-57
2023/04/24 13:13:49;;;;;;;24.88;22.88;;;;;;;;;;5014045;28;20522;-57
2023/04/24 13:16:15;;;;;;;24.00;22.00;;;;;;;;;;5013498;28;20026;-58
2023/04/24 13:18:41;;;;;;;21.50;19.60;;;;;;;;;;4995999;28;20486;-61
2023/04/24 13:21:07;;;;;;;18.02;16.33;;;;;;;;;;5014439;28;20171;-63
2023/04/24 13:23:34;;;;;;;16.80;15.10;;;;;;;;;;4996288;28;20061;-56
2023/04/24 13:26:01;;;;;;;15.18;13.30;;;;;;;;;;5014267;28;20033;-59
2023/04/24 13:28:27;;;;;;;14.20;10.60;;;;;;;;;;5014028;28;20033;-59
2023/04/24 13:30:53;;;;;;;14.05;10.02;;;;;;;;;;5014168;28;20478;-59
2023/04/24 13:33:20;;;;;;;14.05;10.05;;;;;;;;;;5014186;28;20425;-59
2023/04/24 13:35:46;;;;;;;14.10;10.05;;;;;;;;;;4996331;28;20026;-56
2023/04/24 13:38:11;;;;;;;13.70;9.30;;;;;;;;;;5013833;28;20572;-61
2023/04/24 13:40:37;;;;;;;13.88;9.60;;;;;;;;;;5013691;28;20122;-60
2023/04/24 13:43:04;;;;;;;13.80;9.30;;;;;;;;;;5013248;28;20390;-58
2023/04/24 13:45:30;;;;;;;13.88;9.38;;;;;;;;;;5013379;28;20037;-61
2023/04/24 13:47:57;;;;;;;13.65;8.95;;;;;;;;;;5013871;28;20026;-58
2023/04/24 13:50:23;;;;;;;14.95;10.60;;;;;;;;;;4996246;28;20391;-60
2023/04/24 13:52:49;;;;;;;13.65;9.02;;;;;;;;;;5013531;28;20018;-61
2023/04/24 13:55:15;;;;;;;13.38;8.50;;;;;;;;;;5013688;28;20105;-63
2023/04/24 13:57:41;;;;;;;13.43;8.38;;;;;;;;;;5013714;28;20133;-59
2023/04/24 14:00:10;;;;;;;13.30;8.20;;;;;;;;;;5013132;28;20570;-61
2023/04/24 14:02:36;;;;;;;13.40;8.13;;;;;;;;;;5013615;28;20569;-59
2023/04/24 14:05:03;;;;;;;13.60;8.50;;;;;;;;;;5013480;28;20072;-60
2023/04/24 14:07:30;;;;;;;13.35;7.90;;;;;;;;;;5013561;28;20042;-60
2023/04/24 14:09:56;;;;;;;14.52;8.40;;;;;;;;;;5013629;28;20536;-60
2023/04/24 14:12:22;;;;;;;13.30;7.90;;;;;;;;;;4995572;28;20017;-59
2023/04/24 14:14:48;;;;;;;13.32;8.00;;;;;;;;;;4995090;28;20026;-59
2023/04/24 14:17:14;;;;;;;13.57;8.65;;;;;;;;;;4995440;28;20036;-60
2023/04/24 14:19:40;;;;;;;15.20;13.45;;;;;;;;;;5013141;28;20041;-56